createdAt,value
2022-09-21T12:53:14.639Z,27
2022-09-21T12:55:48.715Z,26
2022-09-21T12:58:21.034Z,31
2022-09-21T13:00:54.144Z,19
2022-09-21T13:03:27.372Z,20
2022-09-21T13:06:00.086Z,24
2022-09-21T13:08:33.021Z,24
2022-09-21T13:11:06.105Z,16
2022-09-21T13:13:39.212Z,18
2022-09-21T13:16:12.312Z,20
2022-09-21T13:18:45.835Z,19
2022-09-21T13:21:18.714Z,19
2022-09-21T13:23:51.363Z,24
2022-09-21T13:26:25.382Z,38
2022-09-21T13:28:57.764Z,36
2022-09-21T13:31:42.192Z,20
2022-09-21T13:34:14.666Z,31
2022-09-21T13:36:47.000Z,17
2022-09-21T13:39:20.304Z,16
2022-09-21T13:42:04.420Z,26
2022-09-21T13:44:35.736Z,24
2022-09-21T13:47:08.336Z,9
2022-09-21T13:49:41.798Z,10
2022-09-21T13:52:15.013Z,4
2022-09-21T13:54:48.230Z,12
2022-09-21T13:57:21.526Z,12
2022-09-21T13:59:54.588Z,11
2022-09-21T14:02:28.439Z,16
2022-09-21T14:05:01.432Z,24
2022-09-21T14:07:34.314Z,25
2022-09-21T14:10:07.042Z,16
2022-09-21T14:12:40.330Z,20
2022-09-21T14:15:13.265Z,28
2022-09-21T14:17:46.324Z,51
2022-09-21T14:20:19.702Z,66
2022-09-21T14:22:52.536Z,64
2022-09-21T14:25:25.846Z,61
2022-09-21T14:27:59.071Z,45
2022-09-21T14:30:32.335Z,28
2022-09-21T14:33:05.815Z,20
2022-09-21T14:35:38.987Z,19
2022-09-21T14:38:11.792Z,19
2022-09-21T14:40:45.190Z,16
2022-09-21T14:43:17.743Z,21
2022-09-21T14:45:51.087Z,15
2022-09-21T14:48:24.451Z,18
2022-09-21T14:50:57.974Z,52
2022-09-21T14:53:30.819Z,21
2022-09-21T14:56:04.572Z,25
2022-09-21T14:58:44.861Z,25
2022-09-21T15:01:17.191Z,28
2022-09-21T15:03:50.128Z,38
2022-09-21T15:06:24.985Z,27
2022-09-21T15:08:58.037Z,20
2022-09-21T15:11:30.924Z,15
2022-09-21T15:14:03.849Z,12
2022-09-21T15:16:36.870Z,13
2022-09-21T15:19:09.755Z,48
2022-09-21T15:21:45.097Z,13
2022-09-21T15:24:16.713Z,12
2022-09-21T15:26:50.150Z,12
2022-09-21T15:29:23.320Z,20
2022-09-21T15:31:56.770Z,16
2022-09-21T15:34:30.162Z,23
2022-09-21T15:37:03.962Z,16
2022-09-21T15:39:36.586Z,13
2022-09-21T15:42:09.031Z,15
2022-09-21T15:44:42.355Z,15
2022-09-21T15:47:17.262Z,8
2022-09-21T15:49:52.646Z,9
2022-09-21T15:52:28.353Z,6
2022-09-21T15:55:00.694Z,12
2022-09-21T15:57:39.563Z,4
2022-09-21T16:00:10.551Z,5
2022-09-21T16:02:42.886Z,7
2022-09-21T16:05:15.696Z,24
2022-09-21T16:07:48.177Z,8
2022-09-21T16:10:20.123Z,11
2022-09-21T16:12:53.093Z,12
2022-09-21T16:15:25.622Z,12
2022-09-21T16:17:58.072Z,12
2022-09-21T16:20:30.531Z,12
2022-09-21T16:23:03.262Z,12
2022-09-21T16:25:34.222Z,15
2022-09-21T16:28:06.843Z,15
2022-09-21T16:30:39.194Z,12
2022-09-21T16:33:11.991Z,13
2022-09-21T16:35:44.384Z,23
2022-09-21T16:38:15.705Z,27
2022-09-21T16:40:47.963Z,20
2022-09-21T16:43:24.529Z,20
2022-09-21T16:45:56.062Z,24
2022-09-21T16:48:28.696Z,25
2022-09-21T16:51:01.749Z,19
2022-09-21T16:53:38.126Z,19
2022-09-21T16:56:10.322Z,45
2022-09-21T16:58:43.721Z,44
2022-09-21T17:01:16.140Z,45
2022-09-21T17:03:49.567Z,52
2022-09-21T17:06:21.370Z,35
2022-09-21T17:08:56.418Z,33
2022-09-21T17:11:29.069Z,29
2022-09-21T17:14:05.555Z,35
2022-09-21T17:16:37.159Z,33
2022-09-21T17:19:09.753Z,31
2022-09-21T17:21:42.028Z,24
2022-09-21T17:24:51.534Z,24
2022-09-21T17:27:22.866Z,21
2022-09-21T17:29:55.274Z,24
2022-09-21T17:32:27.810Z,32
2022-09-21T17:35:00.261Z,28
2022-09-21T17:37:33.355Z,24
2022-09-21T17:40:11.871Z,28
2022-09-21T17:42:44.307Z,33
2022-09-21T17:45:16.834Z,27
2022-09-21T17:47:49.331Z,32
2022-09-21T17:50:22.813Z,36
2022-09-21T17:52:55.368Z,31
2022-09-21T17:55:28.009Z,32
2022-09-21T17:58:00.575Z,36
2022-09-21T18:00:34.380Z,38
2022-09-21T18:03:07.405Z,30
2022-09-21T18:05:39.879Z,32
2022-09-21T18:08:11.642Z,35
2022-09-21T18:10:44.040Z,36
2022-09-21T18:13:16.183Z,37
2022-09-21T18:15:48.468Z,43
2022-09-21T18:18:20.727Z,45
2022-09-21T18:20:52.660Z,97
2022-09-21T18:23:25.027Z,48
2022-09-21T18:25:57.889Z,46
2022-09-21T18:28:30.407Z,51
2022-09-21T18:31:03.446Z,43
2022-09-21T18:33:35.852Z,41
2022-09-21T18:36:10.948Z,31
2022-09-21T18:38:42.513Z,28
2022-09-21T18:41:16.283Z,36
2022-09-21T18:43:46.847Z,40
2022-09-21T18:46:19.181Z,41
2022-09-21T18:48:51.882Z,44
2022-09-21T18:51:25.935Z,49
2022-09-21T18:53:58.875Z,44
2022-09-21T18:56:31.544Z,41
2022-09-21T18:59:03.775Z,33
2022-09-21T19:01:39.961Z,32
2022-09-21T19:04:12.650Z,36
2022-09-21T19:06:45.140Z,35
2022-09-21T19:09:17.196Z,32
2022-09-21T19:11:49.688Z,31
2022-09-21T19:14:21.633Z,35
2022-09-21T19:16:54.784Z,37
2022-09-21T19:19:27.369Z,41
2022-09-21T19:21:59.603Z,43
2022-09-21T19:24:32.123Z,44
2022-09-21T19:27:06.770Z,42
2022-09-21T19:29:39.383Z,36
2022-09-21T19:32:12.862Z,38
2022-09-21T19:34:47.625Z,37
2022-09-21T19:37:19.772Z,36
2022-09-21T19:39:52.259Z,36
2022-09-21T19:42:30.773Z,35
2022-09-21T19:45:02.132Z,32
2022-09-21T19:47:34.765Z,44
2022-09-21T19:50:07.186Z,34
2022-09-21T19:52:39.598Z,39
2022-09-21T19:55:12.982Z,44
2022-09-21T19:57:44.560Z,39
2022-09-21T20:00:17.095Z,37
2022-09-21T20:02:49.917Z,39
2022-09-21T20:05:22.606Z,31
2022-09-21T20:07:56.390Z,40
2022-09-21T20:10:29.088Z,37
2022-09-21T20:13:01.841Z,37
2022-09-21T20:15:35.186Z,32
2022-09-21T20:18:07.745Z,37
2022-09-21T20:20:40.109Z,33
2022-09-21T20:23:12.567Z,46
2022-09-21T20:25:44.720Z,49
2022-09-21T20:28:16.897Z,52
2022-09-21T20:30:49.779Z,48
2022-09-21T20:33:22.309Z,48
2022-09-21T20:35:56.797Z,69
2022-09-21T20:38:29.232Z,142
2022-09-21T20:41:01.555Z,111
2022-09-21T20:43:35.900Z,84
2022-09-21T20:46:11.821Z,67
2022-09-21T20:48:44.119Z,55
2022-09-21T20:51:20.335Z,36
2022-09-21T20:53:52.945Z,42
2022-09-21T20:56:25.047Z,45
2022-09-21T20:58:55.401Z,45
2022-09-21T21:01:27.925Z,37
2022-09-21T21:04:00.127Z,39
2022-09-21T21:06:32.202Z,44
2022-09-21T21:09:04.885Z,44
2022-09-21T21:11:37.693Z,44
2022-09-21T21:14:10.195Z,44
2022-09-21T21:16:42.814Z,41
2022-09-21T21:19:17.349Z,48
2022-09-21T21:21:49.653Z,49
2022-09-21T21:24:21.635Z,49
2022-09-21T21:27:04.006Z,50
2022-09-21T21:29:34.843Z,48
2022-09-21T21:32:07.625Z,48
2022-09-21T21:34:40.436Z,48
2022-09-21T21:37:12.852Z,46
2022-09-21T21:39:46.766Z,44
2022-09-21T21:42:19.185Z,44
2022-09-21T21:44:51.718Z,43
2022-09-21T21:47:41.719Z,43
2022-09-21T21:50:12.711Z,45
2022-09-21T21:52:47.303Z,58
2022-09-21T21:55:19.977Z,53
2022-09-21T21:57:52.023Z,45
2022-09-21T22:00:24.498Z,50
2022-09-21T22:02:56.850Z,48
2022-09-21T22:05:30.882Z,40
2022-09-21T22:08:03.459Z,48
2022-09-21T22:10:38.870Z,44
2022-09-21T22:13:17.410Z,43
2022-09-21T22:15:50.495Z,46
2022-09-21T22:18:22.995Z,48
2022-09-21T22:20:56.660Z,52
2022-09-21T22:23:28.870Z,47
2022-09-21T22:26:01.526Z,43
2022-09-21T22:28:36.159Z,40
2022-09-21T22:31:08.649Z,43
2022-09-21T22:33:40.931Z,41
2022-09-21T22:36:16.589Z,36
2022-09-21T22:38:47.901Z,40
2022-09-21T22:41:20.785Z,35
2022-09-21T22:43:53.243Z,32
2022-09-21T22:46:26.198Z,43
2022-09-21T22:49:00.913Z,44
2022-09-21T22:51:33.735Z,43
2022-09-21T22:54:04.553Z,40
2022-09-21T22:56:38.659Z,42
2022-09-21T22:59:11.245Z,40
2022-09-21T23:01:46.877Z,39
2022-09-21T23:04:18.359Z,33
2022-09-21T23:06:50.817Z,36
2022-09-21T23:09:25.010Z,36
2022-09-21T23:11:56.028Z,38
2022-09-21T23:14:28.730Z,33
2022-09-21T23:17:00.898Z,32
2022-09-21T23:19:34.472Z,36
2022-09-21T23:22:06.973Z,34
2022-09-21T23:24:39.089Z,41
2022-09-21T23:27:11.481Z,35
2022-09-21T23:29:44.958Z,36
2022-09-21T23:32:17.681Z,37
2022-09-21T23:34:49.888Z,37
2022-09-21T23:37:23.278Z,43
2022-09-21T23:39:57.415Z,38
2022-09-21T23:42:29.911Z,40
2022-09-21T23:45:05.193Z,35
2022-09-21T23:47:36.463Z,37
2022-09-21T23:50:08.441Z,29
2022-09-21T23:52:40.778Z,33
2022-09-21T23:55:13.330Z,40
2022-09-21T23:57:46.111Z,32
